Time;durP1;ratioP1;P1;durP2;ratioP2;P2;SDS_P1;SDS_P2;PMS_P1;PMS_P2;Temp;Humidity;BMP_temperature;BMP_pressure;BME280_temperature;BME280_humidity;BME280_pressure;Samples;Min_cycle;Max_cycle;Signal;HPM_P1;HPM_P2
2022/01/21 00:00:18;;;;;;;18.23;6.93;;;;;;;;;;5043794;28;20044;-39
2022/01/21 00:02:46;;;;;;;22.73;7.43;;;;;;;;;;5043718;28;20040;-39
2022/01/21 00:05:13;;;;;;;15.63;7.05;;;;;;;;;;5028114;28;20116;-39
2022/01/21 00:07:40;;;;;;;24.40;7.60;;;;;;;;;;5042433;28;20027;-40
2022/01/21 00:10:08;;;;;;;21.83;6.47;;;;;;;;;;5036240;28;20091;-38
2022/01/21 00:12:36;;;;;;;18.60;6.38;;;;;;;;;;5040834;28;20122;-40
2022/01/21 00:15:05;;;;;;;20.88;6.45;;;;;;;;;;5042341;28;20060;-39
2022/01/21 00:17:32;;;;;;;18.02;6.20;;;;;;;;;;5040308;28;20111;-39
2022/01/21 00:31:00;;;;;;;18.55;5.78;;;;;;;;;;5047609;28;20047;-38
2022/01/21 00:33:27;;;;;;;17.30;6.25;;;;;;;;;;5043087;28;20041;-37
2022/01/21 00:35:54;;;;;;;26.42;6.75;;;;;;;;;;5041601;28;20403;-37
2022/01/21 00:38:23;;;;;;;24.45;7.13;;;;;;;;;;5041509;28;20026;-37
2022/01/21 00:40:50;;;;;;;21.02;6.95;;;;;;;;;;5042320;28;20032;-37
2022/01/21 00:43:28;;;;;;;20.05;6.35;;;;;;;;;;5052564;28;20056;-37
2022/01/21 00:45:55;;;;;;;19.75;6.85;;;;;;;;;;5057309;28;20033;-37
2022/01/21 00:48:22;;;;;;;26.13;7.20;;;;;;;;;;5062123;28;20039;-36
2022/01/21 00:50:50;;;;;;;21.20;6.90;;;;;;;;;;5062853;28;20032;-37
2022/01/21 00:53:17;;;;;;;22.38;6.07;;;;;;;;;;5062111;28;20040;-39
2022/01/21 00:55:44;;;;;;;20.63;6.32;;;;;;;;;;5065182;28;20028;-37
2022/01/21 00:58:11;;;;;;;13.43;5.80;;;;;;;;;;5067718;28;20052;-37
2022/01/21 01:00:38;;;;;;;9.32;5.70;;;;;;;;;;5067007;28;20024;-38
2022/01/21 01:03:05;;;;;;;17.80;7.00;;;;;;;;;;5061276;28;20375;-37
2022/01/21 01:05:32;;;;;;;13.95;8.68;;;;;;;;;;5069612;28;20111;-37
2022/01/21 01:08:01;;;;;;;19.25;8.65;;;;;;;;;;5061835;28;20568;-38
2022/01/21 01:21:30;;;;;;;13.00;7.65;;;;;;;;;;5051861;28;20048;-40
2022/01/21 01:29:26;;;;;;;9.18;5.82;;;;;;;;;;5053534;28;20102;-39
2022/01/21 01:31:53;;;;;;;10.40;5.65;;;;;;;;;;5049373;28;20025;-39
2022/01/21 01:34:20;;;;;;;13.95;5.97;;;;;;;;;;5065446;28;20052;-39
2022/01/21 01:36:47;;;;;;;10.80;5.90;;;;;;;;;;5055899;28;20104;-39
2022/01/21 01:49:42;;;;;;;12.45;5.53;;;;;;;;;;5055186;28;20142;-40
2022/01/21 01:52:14;;;;;;;16.88;5.65;;;;;;;;;;5053759;28;20037;-37
2022/01/21 01:54:43;;;;;;;12.48;5.95;;;;;;;;;;5054313;28;20546;-38
2022/01/21 01:57:11;;;;;;;11.25;5.80;;;;;;;;;;5052422;28;20103;-37
2022/01/21 01:59:40;;;;;;;12.82;5.80;;;;;;;;;;5054646;28;20091;-38
2022/01/21 02:02:14;;;;;;;16.85;6.75;;;;;;;;;;5055098;28;20624;-39
2022/01/21 02:04:43;;;;;;;21.38;7.28;;;;;;;;;;5051048;28;20060;-39
2022/01/21 02:07:10;;;;;;;18.20;6.63;;;;;;;;;;5055812;28;20112;-39
2022/01/21 02:09:37;;;;;;;16.20;6.65;;;;;;;;;;5055181;28;20021;-41
2022/01/21 02:12:07;;;;;;;15.60;7.20;;;;;;;;;;5051452;28;20068;-40
2022/01/21 02:14:38;;;;;;;15.93;7.05;;;;;;;;;;5053025;28;20048;-40
2022/01/21 02:17:16;;;;;;;15.60;6.55;;;;;;;;;;5032253;28;20033;-40
2022/01/21 02:22:36;;;;;;;9.30;5.43;;;;;;;;;;5052571;28;20044;-39
2022/01/21 02:25:15;;;;;;;9.02;5.90;;;;;;;;;;5051588;28;20151;-40
2022/01/21 02:27:44;;;;;;;9.80;5.30;;;;;;;;;;5050258;28;20526;-39
2022/01/21 02:30:18;;;;;;;7.15;4.60;;;;;;;;;;5075770;22;20009;-43
2022/01/21 02:32:46;;;;;;;8.90;4.28;;;;;;;;;;4988477;28;20121;-41
2022/01/21 02:35:14;;;;;;;7.40;4.78;;;;;;;;;;4990050;28;20046;-42
2022/01/21 02:37:47;;;;;;;10.90;5.00;;;;;;;;;;4990761;28;20022;-43
2022/01/21 02:40:18;;;;;;;9.15;4.43;;;;;;;;;;5005287;28;20034;-43
2022/01/21 02:42:46;;;;;;;6.07;3.95;;;;;;;;;;4990902;28;20037;-42
2022/01/21 02:45:15;;;;;;;6.47;4.10;;;;;;;;;;4991572;28;20093;-41
2022/01/21 02:47:44;;;;;;;10.25;4.07;;;;;;;;;;5006152;28;20464;-42
2022/01/21 02:50:12;;;;;;;7.57;3.90;;;;;;;;;;4999211;28;20063;-41
2022/01/21 02:52:55;;;;;;;8.75;4.03;;;;;;;;;;4990624;28;20034;-42
2022/01/21 02:55:25;;;;;;;6.22;4.03;;;;;;;;;;4991127;28;20137;-41
2022/01/21 02:57:53;;;;;;;4.55;4.15;;;;;;;;;;4989950;28;20026;-41
2022/01/21 03:00:21;;;;;;;7.05;4.25;;;;;;;;;;4989948;28;20113;-40
2022/01/21 03:02:48;;;;;;;6.07;4.05;;;;;;;;;;4989137;28;20442;-44
2022/01/21 03:05:16;;;;;;;8.02;4.53;;;;;;;;;;4989355;28;20030;-41
2022/01/21 03:07:44;;;;;;;4.95;3.83;;;;;;;;;;4989471;28;20030;-41
2022/01/21 03:10:12;;;;;;;5.43;3.65;;;;;;;;;;4989506;28;20525;-42
2022/01/21 03:12:40;;;;;;;6.57;3.42;;;;;;;;;;4989109;28;20019;-41
2022/01/21 03:15:07;;;;;;;7.97;3.72;;;;;;;;;;4988536;28;20038;-42
2022/01/21 03:17:35;;;;;;;7.18;3.95;;;;;;;;;;4988840;28;20022;-43
2022/01/21 03:20:04;;;;;;;7.45;3.20;;;;;;;;;;4989530;28;20026;-40
2022/01/21 03:22:32;;;;;;;3.03;2.65;;;;;;;;;;4988033;28;20026;-41
2022/01/21 03:25:00;;;;;;;4.90;3.20;;;;;;;;;;4989666;28;20081;-41
2022/01/21 03:27:27;;;;;;;4.85;3.42;;;;;;;;;;4989711;28;20353;-41
2022/01/21 03:29:54;;;;;;;7.70;3.88;;;;;;;;;;4983650;28;20523;-38
2022/01/21 03:32:21;;;;;;;6.68;4.25;;;;;;;;;;4991711;28;20153;-38
2022/01/21 03:34:48;;;;;;;4.85;3.70;;;;;;;;;;4995548;28;20084;-39
2022/01/21 03:37:16;;;;;;;7.40;4.63;;;;;;;;;;4995178;28;20376;-39
2022/01/21 03:39:43;;;;;;;5.38;4.63;;;;;;;;;;4994713;28;20038;-40
2022/01/21 03:42:10;;;;;;;5.80;4.50;;;;;;;;;;4976378;28;20030;-40
2022/01/21 03:44:37;;;;;;;6.82;4.53;;;;;;;;;;4976222;28;20034;-39
2022/01/21 03:47:04;;;;;;;6.95;4.65;;;;;;;;;;4990503;28;20117;-40
2022/01/21 03:49:38;;;;;;;7.10;4.97;;;;;;;;;;4975743;28;20114;-40
2022/01/21 03:52:06;;;;;;;6.22;5.15;;;;;;;;;;4975913;28;20393;-39
2022/01/21 03:54:35;;;;;;;6.28;4.63;;;;;;;;;;4975702;28;20038;-40
2022/01/21 03:57:03;;;;;;;9.13;4.95;;;;;;;;;;4975755;28;20034;-39
2022/01/21 03:59:30;;;;;;;10.50;4.53;;;;;;;;;;4975830;28;20035;-40
2022/01/21 04:01:57;;;;;;;5.47;4.25;;;;;;;;;;4975489;28;20536;-39
2022/01/21 04:04:24;;;;;;;4.47;4.07;;;;;;;;;;4975776;28;20106;-39
2022/01/21 04:06:52;;;;;;;6.25;4.28;;;;;;;;;;4976089;28;20031;-40
2022/01/21 04:09:19;;;;;;;6.65;4.15;;;;;;;;;;4975645;28;20027;-40
2022/01/21 04:11:46;;;;;;;4.60;4.20;;;;;;;;;;4980630;28;20523;-40
2022/01/21 04:14:12;;;;;;;4.78;4.15;;;;;;;;;;4985203;28;20035;-39
2022/01/21 04:16:39;;;;;;;6.30;4.18;;;;;;;;;;4985559;28;20019;-39
2022/01/21 04:19:06;;;;;;;4.75;3.83;;;;;;;;;;4983802;28;20101;-40
2022/01/21 04:21:33;;;;;;;5.78;3.60;;;;;;;;;;4984933;28;20533;-39
2022/01/21 04:24:02;;;;;;;5.40;4.00;;;;;;;;;;4992382;28;20022;-40
2022/01/21 04:26:30;;;;;;;3.85;3.50;;;;;;;;;;4994498;28;20038;-40
2022/01/21 04:28:57;;;;;;;3.95;3.58;;;;;;;;;;4995092;28;20026;-39
2022/01/21 04:31:24;;;;;;;4.43;3.45;;;;;;;;;;4994530;28;20046;-39
2022/01/21 04:33:50;;;;;;;3.25;2.95;;;;;;;;;;4994952;28;20022;-39
2022/01/21 04:36:17;;;;;;;3.45;3.15;;;;;;;;;;4995105;28;20552;-39
2022/01/21 04:38:44;;;;;;;3.45;3.20;;;;;;;;;;4994973;28;20030;-40
2022/01/21 04:41:36;;;;;;;5.30;3.45;;;;;;;;;;4994921;28;20479;-39
2022/01/21 04:49:34;;;;;;;3.83;3.30;;;;;;;;;;4994842;28;20054;-39
2022/01/21 04:52:04;;;;;;;4.22;3.47;;;;;;;;;;4994752;28;20037;-40
2022/01/21 04:54:35;;;;;;;3.75;3.35;;;;;;;;;;5009808;28;20431;-39
2022/01/21 04:57:03;;;;;;;3.80;3.50;;;;;;;;;;4994507;28;20056;-39
2022/01/21 04:59:30;;;;;;;3.53;3.22;;;;;;;;;;4994576;28;20022;-40
2022/01/21 05:01:57;;;;;;;3.60;3.30;;;;;;;;;;4994535;28;20030;-39
2022/01/21 05:04:24;;;;;;;3.85;3.30;;;;;;;;;;4994445;28;20034;-40
2022/01/21 05:06:53;;;;;;;4.15;3.38;;;;;;;;;;4994604;28;20050;-40
2022/01/21 05:09:28;;;;;;;5.30;3.70;;;;;;;;;;4994846;28;20034;-40
2022/01/21 05:11:56;;;;;;;5.72;3.25;;;;;;;;;;4994416;28;20065;-39
2022/01/21 05:14:28;;;;;;;3.38;3.17;;;;;;;;;;4994298;28;20049;-40
2022/01/21 05:17:03;;;;;;;5.22;3.28;;;;;;;;;;4994309;28;20120;-39
2022/01/21 05:19:30;;;;;;;3.60;3.30;;;;;;;;;;4994318;28;20062;-39
2022/01/21 05:21:57;;;;;;;6.05;3.38;;;;;;;;;;4994146;28;20113;-40
2022/01/21 05:24:24;;;;;;;2.88;2.67;;;;;;;;;;4994235;28;20045;-39
2022/01/21 05:26:53;;;;;;;3.58;2.55;;;;;;;;;;4994099;28;20054;-39
2022/01/21 05:29:22;;;;;;;2.25;2.05;;;;;;;;;;4993787;28;20034;-39
2022/01/21 05:31:49;;;;;;;2.15;1.95;;;;;;;;;;4993829;28;20133;-39
2022/01/21 05:34:16;;;;;;;3.92;2.13;;;;;;;;;;4994013;28;20026;-39
2022/01/21 05:36:43;;;;;;;2.35;1.60;;;;;;;;;;4993928;28;20399;-39
2022/01/21 05:39:11;;;;;;;2.70;1.70;;;;;;;;;;4993947;28;20795;-39
2022/01/21 05:41:39;;;;;;;4.20;1.70;;;;;;;;;;4993661;28;20081;-39
2022/01/21 05:44:16;;;;;;;2.55;1.40;;;;;;;;;;4993852;28;20038;-39
2022/01/21 05:46:55;;;;;;;2.35;1.40;;;;;;;;;;4992542;28;20034;-39
2022/01/21 05:49:26;;;;;;;1.95;1.40;;;;;;;;;;4993633;28;20105;-39
2022/01/21 05:52:01;;;;;;;2.30;1.67;;;;;;;;;;4993605;28;20026;-39
2022/01/21 05:54:28;;;;;;;6.40;1.38;;;;;;;;;;4993048;28;20121;-40
2022/01/21 05:56:56;;;;;;;2.05;1.40;;;;;;;;;;4993507;28;20077;-39
2022/01/21 05:59:23;;;;;;;1.83;1.27;;;;;;;;;;4993627;28;20042;-39
2022/01/21 06:01:51;;;;;;;1.40;1.30;;;;;;;;;;4993507;28;20065;-39
2022/01/21 06:04:18;;;;;;;2.20;1.35;;;;;;;;;;4993507;28;20049;-39
2022/01/21 06:06:45;;;;;;;3.25;1.10;;;;;;;;;;4993460;28;20444;-39
2022/01/21 06:09:12;;;;;;;1.83;1.05;;;;;;;;;;4993421;28;20057;-39
2022/01/21 06:11:39;;;;;;;1.48;1.20;;;;;;;;;;4993289;28;20030;-39
2022/01/21 06:14:06;;;;;;;1.00;0.98;;;;;;;;;;4993347;28;20104;-39
2022/01/21 06:16:38;;;;;;;2.08;1.27;;;;;;;;;;4993352;28;20492;-39
2022/01/21 06:19:05;;;;;;;1.30;1.20;;;;;;;;;;4993337;28;20061;-39
2022/01/21 06:21:32;;;;;;;1.98;1.13;;;;;;;;;;4993189;28;20456;-40
2022/01/21 06:23:59;;;;;;;5.43;1.50;;;;;;;;;;4993152;28;20033;-40
2022/01/21 06:26:26;;;;;;;1.35;1.10;;;;;;;;;;4993179;28;20034;-38
2022/01/21 06:28:53;;;;;;;1.98;0.95;;;;;;;;;;4992528;28;20420;-38
2022/01/21 06:31:20;;;;;;;1.10;0.93;;;;;;;;;;5146178;23;20021;-39
2022/01/21 06:33:47;;;;;;;1.50;1.00;;;;;;;;;;5017073;28;20045;-37
2022/01/21 06:36:14;;;;;;;1.63;1.00;;;;;;;;;;5032660;28;20026;-37
2022/01/21 06:38:41;;;;;;;1.23;0.98;;;;;;;;;;5032569;28;20034;-37
2022/01/21 06:41:08;;;;;;;1.52;0.93;;;;;;;;;;5032465;28;20037;-37
2022/01/21 06:43:35;;;;;;;1.60;1.00;;;;;;;;;;5032528;28;20144;-38
2022/01/21 06:46:02;;;;;;;1.52;0.82;;;;;;;;;;5032561;28;20022;-37
2022/01/21 06:48:29;;;;;;;1.08;0.80;;;;;;;;;;5032480;28;20100;-37
2022/01/21 06:50:56;;;;;;;0.95;0.85;;;;;;;;;;5032424;28;20025;-39
2022/01/21 06:53:23;;;;;;;4.85;0.80;;;;;;;;;;5032226;28;20104;-38
2022/01/21 06:55:50;;;;;;;2.83;0.80;;;;;;;;;;5032470;28;20490;-37
2022/01/21 06:58:17;;;;;;;1.75;0.90;;;;;;;;;;5032476;28;20034;-37
2022/01/21 07:00:44;;;;;;;0.95;0.85;;;;;;;;;;5032442;28;20450;-38
2022/01/21 07:03:11;;;;;;;0.80;0.73;;;;;;;;;;5032245;28;20037;-37
2022/01/21 07:05:38;;;;;;;1.25;0.90;;;;;;;;;;5032289;28;20416;-38
2022/01/21 07:08:05;;;;;;;1.10;0.88;;;;;;;;;;5036315;28;20033;-37
2022/01/21 07:10:32;;;;;;;1.90;0.90;;;;;;;;;;5035003;28;20037;-38
2022/01/21 07:12:59;;;;;;;2.70;1.00;;;;;;;;;;5036222;28;20030;-37
2022/01/21 07:15:26;;;;;;;1.55;0.70;;;;;;;;;;5036190;28;20164;-37
2022/01/21 07:17:53;;;;;;;1.95;0.82;;;;;;;;;;5036188;28;20021;-39
2022/01/21 07:20:21;;;;;;;1.98;1.10;;;;;;;;;;5036035;28;20037;-37
2022/01/21 07:22:48;;;;;;;3.10;1.00;;;;;;;;;;5036160;28;20025;-39
2022/01/21 07:25:15;;;;;;;1.90;1.00;;;;;;;;;;5036058;28;20021;-37
2022/01/21 07:27:44;;;;;;;0.90;0.90;;;;;;;;;;5036061;28;20033;-37
2022/01/21 07:30:12;;;;;;;1.00;0.90;;;;;;;;;;5035933;28;20120;-37
2022/01/21 07:32:39;;;;;;;1.45;0.95;;;;;;;;;;5035653;28;20045;-37
2022/01/21 07:35:09;;;;;;;3.72;1.00;;;;;;;;;;5035768;28;20120;-37
2022/01/21 07:37:36;;;;;;;2.42;1.30;;;;;;;;;;5035776;28;20071;-37
2022/01/21 07:40:04;;;;;;;1.73;1.00;;;;;;;;;;5035785;28;20037;-37
2022/01/21 07:42:31;;;;;;;1.77;1.10;;;;;;;;;;5035618;28;20037;-37
2022/01/21 07:44:58;;;;;;;2.05;1.13;;;;;;;;;;5035651;28;20029;-38
2022/01/21 07:47:25;;;;;;;1.50;1.00;;;;;;;;;;5035686;28;20124;-39
2022/01/21 07:49:52;;;;;;;2.78;1.10;;;;;;;;;;5035491;28;20053;-37
2022/01/21 07:52:19;;;;;;;1.30;1.13;;;;;;;;;;5035596;28;20061;-38
2022/01/21 07:54:46;;;;;;;5.00;1.20;;;;;;;;;;5035356;28;20068;-37
2022/01/21 07:57:13;;;;;;;1.58;1.20;;;;;;;;;;5035382;28;20073;-39
2022/01/21 07:59:40;;;;;;;2.25;1.30;;;;;;;;;;5035451;28;20056;-37
2022/01/21 08:02:07;;;;;;;1.80;1.10;;;;;;;;;;5035290;28;20037;-37
2022/01/21 08:04:34;;;;;;;1.63;1.10;;;;;;;;;;5035362;28;20033;-37
2022/01/21 08:07:01;;;;;;;1.70;1.40;;;;;;;;;;5035280;28;20038;-38
2022/01/21 08:09:28;;;;;;;2.13;1.38;;;;;;;;;;5035325;28;20083;-39
2022/01/21 08:11:55;;;;;;;1.88;1.42;;;;;;;;;;5035113;28;20033;-39
2022/01/21 08:14:23;;;;;;;2.90;1.30;;;;;;;;;;5035114;28;20041;-39
2022/01/21 08:16:53;;;;;;;1.50;1.17;;;;;;;;;;5035103;28;20025;-39
2022/01/21 08:19:20;;;;;;;1.40;1.30;;;;;;;;;;5034145;28;20120;-39
2022/01/21 08:21:47;;;;;;;1.38;1.20;;;;;;;;;;5034962;28;20033;-37
2022/01/21 08:24:14;;;;;;;1.25;1.15;;;;;;;;;;5034972;28;20032;-37
2022/01/21 08:26:41;;;;;;;2.10;1.10;;;;;;;;;;5034978;28;20036;-37
2022/01/21 08:29:08;;;;;;;3.53;1.35;;;;;;;;;;5034936;28;20021;-38
2022/01/21 08:31:35;;;;;;;3.63;1.30;;;;;;;;;;5034524;28;20057;-37
2022/01/21 08:34:02;;;;;;;2.85;1.40;;;;;;;;;;5034698;28;20502;-38
2022/01/21 08:36:29;;;;;;;1.98;1.20;;;;;;;;;;5034838;28;20390;-37
2022/01/21 08:38:56;;;;;;;2.13;1.40;;;;;;;;;;5034794;28;20091;-38
2022/01/21 08:41:23;;;;;;;3.17;1.48;;;;;;;;;;5034572;28;20026;-37
2022/01/21 08:43:50;;;;;;;1.58;1.17;;;;;;;;;;5034534;28;20033;-37
2022/01/21 08:46:17;;;;;;;1.45;1.35;;;;;;;;;;5034585;28;20112;-38
2022/01/21 08:48:45;;;;;;;3.13;2.10;;;;;;;;;;5034477;28;20507;-39
2022/01/21 08:51:14;;;;;;;3.08;1.42;;;;;;;;;;5034339;28;20076;-39
2022/01/21 08:53:42;;;;;;;2.20;1.50;;;;;;;;;;5034286;28;20042;-39
2022/01/21 08:56:11;;;;;;;2.25;1.45;;;;;;;;;;5033048;28;20040;-39
2022/01/21 08:58:38;;;;;;;1.55;1.42;;;;;;;;;;5034239;28;20112;-39
2022/01/21 09:01:05;;;;;;;2.60;1.70;;;;;;;;;;5034167;28;20063;-39
2022/01/21 09:03:32;;;;;;;2.17;1.60;;;;;;;;;;5034248;28;20059;-39
2022/01/21 09:05:59;;;;;;;2.03;1.60;;;;;;;;;;5034096;28;20048;-39
2022/01/21 09:08:30;;;;;;;2.30;2.10;;;;;;;;;;5034112;28;20025;-39
2022/01/21 09:10:58;;;;;;;4.22;2.22;;;;;;;;;;5033933;28;20487;-39
2022/01/21 09:13:28;;;;;;;5.72;2.38;;;;;;;;;;5033929;28;20087;-39
2022/01/21 09:15:58;;;;;;;3.15;1.83;;;;;;;;;;5033878;28;20044;-39
2022/01/21 09:18:33;;;;;;;7.13;2.00;;;;;;;;;;5033758;28;20072;-39
2022/01/21 09:21:00;;;;;;;3.35;2.25;;;;;;;;;;5033723;28;20044;-39
2022/01/21 09:23:27;;;;;;;2.28;2.05;;;;;;;;;;5033830;28;20025;-39
2022/01/21 09:25:54;;;;;;;3.33;2.13;;;;;;;;;;5033841;28;20021;-39
2022/01/21 09:28:22;;;;;;;4.50;2.00;;;;;;;;;;5033744;28;20529;-39
2022/01/21 09:30:49;;;;;;;2.95;1.52;;;;;;;;;;5033597;28;20043;-39
2022/01/21 09:33:16;;;;;;;3.28;1.02;;;;;;;;;;5033425;28;20056;-39
2022/01/21 09:35:42;;;;;;;4.50;1.00;;;;;;;;;;5033595;28;20037;-39
2022/01/21 09:38:09;;;;;;;3.03;0.90;;;;;;;;;;5032236;28;20029;-39
2022/01/21 09:40:40;;;;;;;0.60;0.50;;;;;;;;;;5033541;28;20437;-39
2022/01/21 09:43:08;;;;;;;3.10;0.50;;;;;;;;;;5033494;28;20398;-39
2022/01/21 09:45:36;;;;;;;1.83;0.32;;;;;;;;;;5033369;28;20112;-39
2022/01/21 09:48:06;;;;;;;2.03;0.50;;;;;;;;;;5033320;28;20029;-39
2022/01/21 09:50:34;;;;;;;3.13;0.50;;;;;;;;;;5033246;28;20107;-39
2022/01/21 09:53:02;;;;;;;0.98;0.40;;;;;;;;;;5033134;28;20103;-39
2022/01/21 09:55:29;;;;;;;1.13;0.40;;;;;;;;;;5033159;28;20041;-38
2022/01/21 09:57:57;;;;;;;2.67;0.70;;;;;;;;;;5033414;28;20033;-39
2022/01/21 10:00:26;;;;;;;1.10;0.40;;;;;;;;;;5033160;28;20029;-39
2022/01/21 10:02:55;;;;;;;2.25;0.50;;;;;;;;;;5032872;28;20391;-39
2022/01/21 10:05:22;;;;;;;1.30;0.40;;;;;;;;;;5032932;28;20110;-39
2022/01/21 10:07:50;;;;;;;0.82;0.40;;;;;;;;;;5032944;28;20495;-39
2022/01/21 10:10:18;;;;;;;1.02;0.50;;;;;;;;;;5033031;28;20033;-39
2022/01/21 10:12:48;;;;;;;3.05;0.75;;;;;;;;;;5032780;28;20037;-39
2022/01/21 10:15:17;;;;;;;1.45;0.50;;;;;;;;;;5032528;28;20041;-39
2022/01/21 10:18:02;;;;;;;5.32;0.70;;;;;;;;;;5032677;28;20430;-39
2022/01/21 10:20:29;;;;;;;1.15;0.38;;;;;;;;;;5032852;28;20033;-39
2022/01/21 10:23:07;;;;;;;2.47;0.60;;;;;;;;;;5032760;28;20061;-39
2022/01/21 10:25:35;;;;;;;1.52;0.50;;;;;;;;;;5032736;28;20479;-39
2022/01/21 10:28:14;;;;;;;1.33;0.38;;;;;;;;;;5032731;28;20039;-39
2022/01/21 10:30:42;;;;;;;0.90;0.32;;;;;;;;;;5031637;28;20045;-39
2022/01/21 10:33:19;;;;;;;3.08;0.40;;;;;;;;;;5012239;28;20049;-39
2022/01/21 10:35:51;;;;;;;2.50;0.43;;;;;;;;;;5012303;28;20045;-39
2022/01/21 10:38:30;;;;;;;2.13;0.45;;;;;;;;;;5012123;28;20038;-39
2022/01/21 10:41:04;;;;;;;1.70;0.40;;;;;;;;;;5011987;28;20037;-39
2022/01/21 10:43:31;;;;;;;1.92;0.40;;;;;;;;;;5012523;28;20518;-39
2022/01/21 10:45:59;;;;;;;2.13;0.60;;;;;;;;;;5012290;28;20479;-39
2022/01/21 10:48:30;;;;;;;1.60;0.57;;;;;;;;;;5012640;28;20032;-39
2022/01/21 10:51:19;;;;;;;0.80;0.32;;;;;;;;;;5012699;28;20042;-38
2022/01/21 10:53:46;;;;;;;5.20;0.47;;;;;;;;;;5012720;28;20077;-38
2022/01/21 10:56:18;;;;;;;2.83;0.40;;;;;;;;;;5012667;28;20029;-39
2022/01/21 10:58:47;;;;;;;1.47;0.50;;;;;;;;;;5012611;28;20026;-39
2022/01/21 11:01:22;;;;;;;1.20;0.50;;;;;;;;;;5012479;28;20045;-39
2022/01/21 11:03:58;;;;;;;1.00;0.30;;;;;;;;;;5012583;28;20041;-39
2022/01/21 11:06:29;;;;;;;0.77;0.32;;;;;;;;;;5012378;28;20038;-38
2022/01/21 11:09:15;;;;;;;3.53;0.73;;;;;;;;;;5011878;28;20113;-39
2022/01/21 11:11:43;;;;;;;2.17;0.60;;;;;;;;;;5012212;28;20628;-42
2022/01/21 11:14:11;;;;;;;1.42;0.60;;;;;;;;;;5012294;28;20050;-39
2022/01/21 11:16:40;;;;;;;11.00;0.68;;;;;;;;;;5012256;28;20084;-41
2022/01/21 11:19:15;;;;;;;5.15;0.70;;;;;;;;;;5009379;28;20038;-41
2022/01/21 11:21:47;;;;;;;8.18;0.95;;;;;;;;;;5011417;28;20469;-40
2022/01/21 11:24:16;;;;;;;13.90;0.70;;;;;;;;;;5011499;28;20037;-47
2022/01/21 11:26:43;;;;;;;8.30;0.85;;;;;;;;;;5010196;28;20388;-47
2022/01/21 11:29:11;;;;;;;4.22;0.60;;;;;;;;;;5011534;28;20045;-45
2022/01/21 11:31:38;;;;;;;4.55;0.43;;;;;;;;;;5011327;28;20108;-44
2022/01/21 11:34:07;;;;;;;1.95;0.50;;;;;;;;;;5011425;28;20034;-46
2022/01/21 11:36:35;;;;;;;2.17;0.73;;;;;;;;;;5010157;28;20034;-49
2022/01/21 11:39:21;;;;;;;6.43;1.00;;;;;;;;;;5009116;28;20030;-46
2022/01/21 11:41:51;;;;;;;3.22;0.68;;;;;;;;;;5011880;28;20056;-45
2022/01/21 11:44:21;;;;;;;4.53;0.77;;;;;;;;;;5019689;28;20037;-44
2022/01/21 11:47:02;;;;;;;1.58;0.70;;;;;;;;;;5031236;28;20037;-42
2022/01/21 11:49:32;;;;;;;4.10;0.70;;;;;;;;;;5030381;28;20387;-41
2022/01/21 11:52:13;;;;;;;2.05;0.55;;;;;;;;;;5019649;28;20034;-40
2022/01/21 11:54:40;;;;;;;1.95;0.80;;;;;;;;;;5013424;28;20419;-40
2022/01/21 11:57:08;;;;;;;1.67;0.60;;;;;;;;;;5015178;28;20037;-42
2022/01/21 12:02:18;;;;;;;1.52;0.60;;;;;;;;;;4995476;28;20569;-43
2022/01/21 12:04:46;;;;;;;2.70;0.80;;;;;;;;;;4990332;28;20046;-43
2022/01/21 12:07:31;;;;;;;3.80;0.65;;;;;;;;;;4996042;28;20129;-39
2022/01/21 12:10:00;;;;;;;1.75;0.60;;;;;;;;;;4993588;28;20082;-43
2022/01/21 12:12:51;;;;;;;2.03;0.70;;;;;;;;;;5004678;28;20058;-41
2022/01/21 12:21:24;;;;;;;1.92;1.00;;;;;;;;;;4941749;29;20551;-42
2022/01/21 12:23:52;;;;;;;1.30;0.80;;;;;;;;;;5003424;28;20046;-41
2022/01/21 12:26:20;;;;;;;6.13;0.77;;;;;;;;;;4998613;28;20077;-40
2022/01/21 12:28:57;;;;;;;7.97;1.17;;;;;;;;;;5011470;28;20045;-41
2022/01/21 12:31:25;;;;;;;4.30;0.80;;;;;;;;;;5001775;28;20058;-40
2022/01/21 12:33:57;;;;;;;4.28;0.95;;;;;;;;;;5006321;28;20491;-41
2022/01/21 12:36:27;;;;;;;3.95;1.23;;;;;;;;;;5005254;28;20050;-41
2022/01/21 12:41:20;;;;;;;3.38;1.15;;;;;;;;;;5004267;28;20065;-42
2022/01/21 12:44:16;;;;;;;3.42;1.08;;;;;;;;;;5005183;28;20049;-41
2022/01/21 12:46:50;;;;;;;1.85;1.00;;;;;;;;;;5005011;28;20054;-43
2022/01/21 12:49:34;;;;;;;4.57;1.30;;;;;;;;;;4996571;28;20042;-42
2022/01/21 12:57:33;;;;;;;5.07;1.50;;;;;;;;;;5002983;28;20092;-42
2022/01/21 13:00:04;;;;;;;4.72;1.42;;;;;;;;;;5002732;28;20499;-50
2022/01/21 13:02:33;;;;;;;6.00;1.63;;;;;;;;;;5001643;28;20079;-45
2022/01/21 13:05:06;;;;;;;3.58;1.42;;;;;;;;;;5013072;28;20117;-41
2022/01/21 13:07:38;;;;;;;2.50;1.25;;;;;;;;;;4999334;28;20393;-41
2022/01/21 13:10:17;;;;;;;4.05;1.38;;;;;;;;;;5003718;28;20089;-41
2022/01/21 13:13:47;;;;;;;2.17;1.40;;;;;;;;;;5002770;28;20507;-41
2022/01/21 13:15:49;;;;;;;3.08;1.38;;;;;;;;;;4997660;28;20480;-43
2022/01/21 13:18:16;;;;;;;2.40;1.27;;;;;;;;;;5009130;28;20034;-41
2022/01/21 13:20:46;;;;;;;5.03;1.35;;;;;;;;;;5001368;28;20472;-41
2022/01/21 13:23:20;;;;;;;3.40;1.55;;;;;;;;;;5005503;28;20029;-41
2022/01/21 13:25:47;;;;;;;3.83;1.30;;;;;;;;;;5016266;28;20030;-41
2022/01/21 13:28:14;;;;;;;2.38;1.45;;;;;;;;;;5003540;28;20423;-41
2022/01/21 13:30:41;;;;;;;3.05;1.40;;;;;;;;;;4994024;28;20044;-42
2022/01/21 13:33:10;;;;;;;3.53;1.17;;;;;;;;;;5001198;28;20496;-41
2022/01/21 13:35:39;;;;;;;1.70;1.20;;;;;;;;;;5005106;28;20046;-41
2022/01/21 13:38:11;;;;;;;2.28;1.38;;;;;;;;;;5004241;28;20036;-39
2022/01/21 13:40:41;;;;;;;3.40;1.40;;;;;;;;;;5002598;28;20048;-40
2022/01/21 13:43:09;;;;;;;3.15;1.75;;;;;;;;;;5002138;28;20488;-40
2022/01/21 13:45:37;;;;;;;4.65;1.45;;;;;;;;;;5001982;28;20044;-39
2022/01/21 13:48:07;;;;;;;2.65;1.20;;;;;;;;;;5006165;28;20116;-39
2022/01/21 13:50:34;;;;;;;2.22;1.20;;;;;;;;;;5005001;28;20038;-41
2022/01/21 13:53:08;;;;;;;2.25;1.20;;;;;;;;;;4992965;28;20042;-40
2022/01/21 13:55:43;;;;;;;2.15;1.30;;;;;;;;;;5001221;28;20033;-41
2022/01/21 13:58:10;;;;;;;4.68;1.35;;;;;;;;;;5002795;28;20034;-40
2022/01/21 14:00:45;;;;;;;3.65;1.40;;;;;;;;;;5004379;28;20030;-40
2022/01/21 14:03:15;;;;;;;2.63;1.38;;;;;;;;;;5003514;28;20494;-40
2022/01/21 14:05:44;;;;;;;2.35;1.30;;;;;;;;;;5002862;28;20032;-39
2022/01/21 14:08:12;;;;;;;4.40;1.38;;;;;;;;;;5000810;28;20033;-40
2022/01/21 14:10:39;;;;;;;2.35;1.33;;;;;;;;;;5006114;28;20052;-40
2022/01/21 14:13:06;;;;;;;4.63;1.63;;;;;;;;;;5001208;28;20066;-39
2022/01/21 14:15:33;;;;;;;2.33;1.40;;;;;;;;;;5002373;28;20498;-40
2022/01/21 14:18:01;;;;;;;1.95;1.40;;;;;;;;;;5002258;28;20060;-41
2022/01/21 14:20:31;;;;;;;3.95;1.60;;;;;;;;;;5005443;28;20029;-40
2022/01/21 14:22:58;;;;;;;3.92;1.70;;;;;;;;;;5004282;28;20121;-40
2022/01/21 14:25:25;;;;;;;4.93;1.95;;;;;;;;;;5006081;28;20392;-40
2022/01/21 14:27:53;;;;;;;3.33;1.70;;;;;;;;;;4997313;28;20073;-43
2022/01/21 14:30:22;;;;;;;4.10;1.80;;;;;;;;;;5005769;28;20046;-40
2022/01/21 14:32:51;;;;;;;2.78;1.80;;;;;;;;;;4997554;28;20062;-40
2022/01/21 14:35:30;;;;;;;3.63;2.08;;;;;;;;;;4997865;28;20030;-42
2022/01/21 14:38:05;;;;;;;2.70;1.95;;;;;;;;;;4996763;28;20090;-46
2022/01/21 14:40:34;;;;;;;2.65;1.70;;;;;;;;;;4997763;28;20497;-46
2022/01/21 14:43:15;;;;;;;7.47;2.05;;;;;;;;;;4986721;28;20120;-44
2022/01/21 14:45:43;;;;;;;8.25;1.80;;;;;;;;;;4992464;28;20022;-45
2022/01/21 14:48:13;;;;;;;3.72;1.50;;;;;;;;;;4997190;28;20041;-52
2022/01/21 14:50:41;;;;;;;2.75;1.50;;;;;;;;;;5001475;28;20053;-48
2022/01/21 14:53:10;;;;;;;4.60;1.73;;;;;;;;;;4994268;28;20431;-50
2022/01/21 14:55:38;;;;;;;3.22;1.67;;;;;;;;;;4999782;28;20046;-45
2022/01/21 14:58:25;;;;;;;3.92;2.00;;;;;;;;;;4992331;28;20103;-49
2022/01/21 15:01:02;;;;;;;2.67;1.42;;;;;;;;;;4999626;28;20040;-49
2022/01/21 15:03:49;;;;;;;4.57;1.60;;;;;;;;;;5003395;28;20025;-43
2022/01/21 15:06:19;;;;;;;2.58;1.50;;;;;;;;;;4987728;28;20212;-47
2022/01/21 15:08:53;;;;;;;3.85;1.65;;;;;;;;;;4989400;28;20085;-46
2022/01/21 15:17:16;;;;;;;4.53;1.48;;;;;;;;;;5004729;28;20045;-45
2022/01/21 15:19:44;;;;;;;2.78;1.45;;;;;;;;;;4995000;28;20614;-46
2022/01/21 15:22:16;;;;;;;1.92;1.15;;;;;;;;;;4997425;28;20107;-44
2022/01/21 15:24:44;;;;;;;3.38;1.30;;;;;;;;;;4998709;28;20093;-47
2022/01/21 15:27:12;;;;;;;5.35;1.40;;;;;;;;;;5002909;28;20038;-45
2022/01/21 15:29:39;;;;;;;25.65;2.10;;;;;;;;;;5011742;28;20034;-41
2022/01/21 15:32:07;;;;;;;9.18;1.17;;;;;;;;;;5010685;28;20557;-41
2022/01/21 15:34:38;;;;;;;6.10;1.30;;;;;;;;;;5010784;28;20030;-43
2022/01/21 15:37:06;;;;;;;3.28;1.25;;;;;;;;;;5004055;28;20034;-42
2022/01/21 15:39:34;;;;;;;5.90;1.08;;;;;;;;;;5005688;28;20034;-44
2022/01/21 15:42:01;;;;;;;3.13;1.20;;;;;;;;;;5014762;28;20034;-44
2022/01/21 15:44:28;;;;;;;3.05;1.20;;;;;;;;;;5005963;28;20026;-42
2022/01/21 15:46:56;;;;;;;8.50;1.20;;;;;;;;;;5003768;28;20044;-46
2022/01/21 15:49:26;;;;;;;10.35;1.30;;;;;;;;;;4998259;28;20105;-42
2022/01/21 15:51:53;;;;;;;5.80;1.02;;;;;;;;;;5003024;28;20034;-42
2022/01/21 15:54:22;;;;;;;8.80;1.20;;;;;;;;;;5002955;28;20076;-42
2022/01/21 15:56:49;;;;;;;4.47;1.20;;;;;;;;;;5003782;28;20507;-41
2022/01/21 15:59:17;;;;;;;7.60;1.48;;;;;;;;;;4997793;28;20487;-42
2022/01/21 16:01:44;;;;;;;8.25;1.60;;;;;;;;;;5000310;28;20442;-41